Soaring Guidance
Issued by NWS Reno, NV

Home | Current Version | Previous Version | Text Only | Print | Product List | Glossary On
Versions: 1 2 3 4 5 6 7 8 9 10 11 12 13
000
UXUS97 KREV 241347
SRGREV

SOARING FORECAST
NATIONAL WEATHER SERVICE - RENO NV
700 AM PDT SUN JUL 24 2016

THIS SOARING FORECAST IS FOR THE EASTERN SIERRA AND WESTERN NEVADA
WITH SPECIFIC INDICES FOR THE GREATER RENO AREA.

THIS FORECAST IS PREPARED DAILY BY 700 AM AND IS NOT UPDATED.

FOR CURRENT FLIGHT CONDITIONS...FORECASTS...AND ADVISORIES...ACCESS
YOUR LOCAL BRIEFING OUTLET OR FLIGHT SERVICE STATION.

*******************************************************************
FORECASTED LOCAL INDICES FOR RENO:        TODAY     YESTERDAY
FORECASTED MAX TEMP AT RENO (DEG F).....    100          93
FORECASTED TRIGGER TEMPERATURE (DEG F)..     81          79
   EXCEEDED YESTERDAY BY 1155 AM PDT
FORECASTED MAXIMUM ALTITUDE (FT MSL)....  16400       15500
FORECASTED SOARING INDEX (FPM)..........    972         855
FORECASTED K-INDEX.........VALID 18Z....     -1         -22
FORECASTED K-INDEX.........VALID 00Z....      2         -11
FORECASTED LIFTED INDEX....VALID 18Z....     11          13
FORECASTED LIFTED INDEX....VALID 00Z....      8           9

AFTERNOON WINDS ALOFT FORECAST
MSL (FT) WIND/TEMP
9000  2706/+20
10000 2606/+17
12000 2606/+11
14000 2409/+05
16000 2312/+00
18000 2321/-06
24000 2426/-20
30000 2530/-36
34000 2537/-44
39000 2643/-50

SLIDE MOUNTAIN DATA:
     DATE       TIME     TEMP  DEWPT   RH         WIND (MPH)
                        (F)   (F)           | DIR  SPEED GUST
2016-07-24    05:50      56    26     16    | 089   14   19
2016-07-24    05:30      56    26     18    | 089   14   19
2016-07-24    05:20      56    26     18    | 088   15   21
2016-07-24    05:00      56    27     18    | 087   15   23

RENO TAF FORECAST:
KRNO 241122Z 2412/2512 VRB04KT P6SM SKC
     FM242300 29011G19KT P6SM SKC
     FM250500 32008KT P6SM SKC

CARSON CITY TAF FORECAST:
KCXP 241122Z 2412/2512 VRB04KT P6SM SKC
     FM242200 25009G16KT P6SM SKC
     FM250400 29006KT P6SM SKC

OUTLOOK FOR THE RENO-CARSON CITY-MINDEN AREA:
.MONDAY...SUNNY. HIGHS 96 TO 101. SOUTHWEST WINDS UP TO 10 MPH.

SUNRISE AND SUNSET
JULY 24 2016..........SUNRISE   552 AM PDT   SUNSET   819 PM PDT
JULY 25 2016..........SUNRISE   553 AM PDT   SUNSET   818 PM PDT


USA.gov is the U.S. government's official web portal to all federal, state and local government web resources and services.